<?xml version="1.0" encoding="UTF-8" standalone="no" ?>
<gpx xmlns="http://www.topografix.com/GPX/1/1" xmlns:xsi="http://www.w3.org/2001/XMLSchema-instance" xsi:schemaLocation="http://www.topografix.com/GPX/1/1 http://www.topografix.com/GPX/1/1/gpx.xsd" version="1.1" creator="VisuGPX - https://www.visugpx.com">
  <metadata>
    <name>Lundi 12 octobre 2015</name>
    <desc><![CDATA[Parcours partiel de lundi]]></desc>
  </metadata>
  <trk>
    <name><![CDATA[Lundi 12 octobre 2015_1]]></name>
    <trkseg>
      <trkpt lat="49.51682" lon="1.92526">
        <ele>95</ele>
        <time>2015-10-12T11:43:28Z</time>
      </trkpt>
      <trkpt lat="49.51682" lon="1.92526">
        <ele>139</ele>
        <time>2015-10-12T11:43:30Z</time>
      </trkpt>
      <trkpt lat="49.51693" lon="1.92512">
        <ele>142</ele>
        <time>2015-10-12T11:43:43Z</time>
      </trkpt>
      <trkpt lat="49.517" lon="1.92504">
        <ele>142</ele>
        <time>2015-10-12T11:43:49Z</time>
      </trkpt>
      <trkpt lat="49.51709" lon="1.92489">
        <ele>141</ele>
        <time>2015-10-12T11:44:00Z</time>
      </trkpt>
      <trkpt lat="49.51729" lon="1.92464">
        <ele>139</ele>
        <time>2015-10-12T11:44:22Z</time>
      </trkpt>
      <trkpt lat="49.51743" lon="1.92449">
        <ele>135</ele>
        <time>2015-10-12T11:44:39Z</time>
      </trkpt>
      <trkpt lat="49.51755" lon="1.92434">
        <ele>136</ele>
        <time>2015-10-12T11:44:51Z</time>
      </trkpt>
      <trkpt lat="49.51768" lon="1.92417">
        <ele>138</ele>
        <time>2015-10-12T11:45:06Z</time>
      </trkpt>
      <trkpt lat="49.51793" lon="1.92399">
        <ele>145</ele>
        <time>2015-10-12T11:45:27Z</time>
      </trkpt>
      <trkpt lat="49.5181" lon="1.92388">
        <ele>141</ele>
        <time>2015-10-12T11:45:45Z</time>
      </trkpt>
      <trkpt lat="49.51823" lon="1.92387">
        <ele>141</ele>
        <time>2015-10-12T11:45:56Z</time>
      </trkpt>
      <trkpt lat="49.51829" lon="1.92381">
        <ele>137</ele>
        <time>2015-10-12T11:46:06Z</time>
      </trkpt>
      <trkpt lat="49.51849" lon="1.92372">
        <ele>139</ele>
        <time>2015-10-12T11:46:25Z</time>
      </trkpt>
      <trkpt lat="49.51865" lon="1.9237">
        <ele>141</ele>
        <time>2015-10-12T11:46:39Z</time>
      </trkpt>
      <trkpt lat="49.51883" lon="1.92358">
        <ele>144</ele>
        <time>2015-10-12T11:46:56Z</time>
      </trkpt>
      <trkpt lat="49.51899" lon="1.92341">
        <ele>136</ele>
        <time>2015-10-12T11:47:14Z</time>
      </trkpt>
      <trkpt lat="49.51909" lon="1.92325">
        <ele>140</ele>
        <time>2015-10-12T11:47:25Z</time>
      </trkpt>
      <trkpt lat="49.51909" lon="1.92325">
        <ele>140</ele>
        <time>2015-10-12T11:47:31Z</time>
      </trkpt>
      <trkpt lat="49.51909" lon="1.92325">
        <ele>140</ele>
        <time>2015-10-12T11:47:32Z</time>
      </trkpt>
      <trkpt lat="49.51918" lon="1.92307">
        <ele>144</ele>
        <time>2015-10-12T11:47:47Z</time>
      </trkpt>
      <trkpt lat="49.5193" lon="1.92284">
        <ele>141</ele>
        <time>2015-10-12T11:48:06Z</time>
      </trkpt>
      <trkpt lat="49.51947" lon="1.92253">
        <ele>143</ele>
        <time>2015-10-12T11:48:23Z</time>
      </trkpt>
      <trkpt lat="49.51952" lon="1.9223">
        <ele>141</ele>
        <time>2015-10-12T11:48:39Z</time>
      </trkpt>
      <trkpt lat="49.51961" lon="1.92208">
        <ele>137</ele>
        <time>2015-10-12T11:48:53Z</time>
      </trkpt>
      <trkpt lat="49.51975" lon="1.92184">
        <ele>139</ele>
        <time>2015-10-12T11:49:08Z</time>
      </trkpt>
      <trkpt lat="49.51981" lon="1.9216">
        <ele>138</ele>
        <time>2015-10-12T11:49:25Z</time>
      </trkpt>
      <trkpt lat="49.51992" lon="1.92136">
        <ele>138</ele>
        <time>2015-10-12T11:49:41Z</time>
      </trkpt>
      <trkpt lat="49.52002" lon="1.92114">
        <ele>142</ele>
        <time>2015-10-12T11:49:55Z</time>
      </trkpt>
      <trkpt lat="49.52013" lon="1.92082">
        <ele>143</ele>
        <time>2015-10-12T11:50:14Z</time>
      </trkpt>
      <trkpt lat="49.52021" lon="1.92058">
        <ele>147</ele>
        <time>2015-10-12T11:50:31Z</time>
      </trkpt>
      <trkpt lat="49.52027" lon="1.9203">
        <ele>142</ele>
        <time>2015-10-12T11:50:50Z</time>
      </trkpt>
      <trkpt lat="49.52034" lon="1.92005">
        <ele>144</ele>
        <time>2015-10-12T11:51:03Z</time>
      </trkpt>
      <trkpt lat="49.52041" lon="1.91982">
        <ele>144</ele>
        <time>2015-10-12T11:51:19Z</time>
      </trkpt>
      <trkpt lat="49.52047" lon="1.91957">
        <ele>145</ele>
        <time>2015-10-12T11:51:31Z</time>
      </trkpt>
      <trkpt lat="49.52047" lon="1.91957">
        <ele>145</ele>
        <time>2015-10-12T11:51:39Z</time>
      </trkpt>
      <trkpt lat="49.5205" lon="1.91937">
        <ele>142</ele>
        <time>2015-10-12T11:51:46Z</time>
      </trkpt>
      <trkpt lat="49.52056" lon="1.91916">
        <ele>140</ele>
        <time>2015-10-12T11:51:57Z</time>
      </trkpt>
      <trkpt lat="49.52057" lon="1.91909">
        <ele>141</ele>
        <time>2015-10-12T11:52:02Z</time>
      </trkpt>
      <trkpt lat="49.52059" lon="1.91897">
        <ele>140</ele>
        <time>2015-10-12T11:52:11Z</time>
      </trkpt>
      <trkpt lat="49.52062" lon="1.9188">
        <ele>141</ele>
        <time>2015-10-12T11:52:23Z</time>
      </trkpt>
      <trkpt lat="49.52067" lon="1.91862">
        <ele>143</ele>
        <time>2015-10-12T11:52:32Z</time>
      </trkpt>
      <trkpt lat="49.52072" lon="1.9184">
        <ele>142</ele>
        <time>2015-10-12T11:52:46Z</time>
      </trkpt>
      <trkpt lat="49.52082" lon="1.9182">
        <ele>145</ele>
        <time>2015-10-12T11:52:58Z</time>
      </trkpt>
      <trkpt lat="49.52085" lon="1.91795">
        <ele>143</ele>
        <time>2015-10-12T11:53:10Z</time>
      </trkpt>
      <trkpt lat="49.52088" lon="1.91772">
        <ele>142</ele>
        <time>2015-10-12T11:53:21Z</time>
      </trkpt>
      <trkpt lat="49.52084" lon="1.91739">
        <ele>144</ele>
        <time>2015-10-12T11:53:43Z</time>
      </trkpt>
      <trkpt lat="49.52079" lon="1.91715">
        <ele>142</ele>
        <time>2015-10-12T11:53:53Z</time>
      </trkpt>
      <trkpt lat="49.52067" lon="1.917">
        <ele>145</ele>
        <time>2015-10-12T11:54:05Z</time>
      </trkpt>
      <trkpt lat="49.52067" lon="1.917">
        <ele>145</ele>
        <time>2015-10-12T11:54:13Z</time>
      </trkpt>
      <trkpt lat="49.52053" lon="1.91685">
        <ele>148</ele>
        <time>2015-10-12T11:54:23Z</time>
      </trkpt>
      <trkpt lat="49.52053" lon="1.91685">
        <ele>148</ele>
        <time>2015-10-12T11:54:31Z</time>
      </trkpt>
      <trkpt lat="49.52053" lon="1.91685">
        <ele>148</ele>
        <time>2015-10-12T11:54:32Z</time>
      </trkpt>
      <trkpt lat="49.52037" lon="1.91675">
        <ele>142</ele>
        <time>2015-10-12T11:54:44Z</time>
      </trkpt>
      <trkpt lat="49.52025" lon="1.91655">
        <ele>145</ele>
        <time>2015-10-12T11:54:56Z</time>
      </trkpt>
      <trkpt lat="49.52012" lon="1.91633">
        <ele>145</ele>
        <time>2015-10-12T11:55:14Z</time>
      </trkpt>
      <trkpt lat="49.52004" lon="1.91615">
        <ele>145</ele>
        <time>2015-10-12T11:55:27Z</time>
      </trkpt>
      <trkpt lat="49.52002" lon="1.91608">
        <ele>145</ele>
        <time>2015-10-12T11:55:31Z</time>
      </trkpt>
      <trkpt lat="49.52004" lon="1.91615">
        <ele>145</ele>
        <time>2015-10-12T11:55:40Z</time>
      </trkpt>
      <trkpt lat="49.52003" lon="1.91589">
        <ele>146</ele>
        <time>2015-10-12T11:55:51Z</time>
      </trkpt>
      <trkpt lat="49.51994" lon="1.91555">
        <ele>147</ele>
        <time>2015-10-12T11:56:08Z</time>
      </trkpt>
      <trkpt lat="49.51994" lon="1.91555">
        <ele>147</ele>
        <time>2015-10-12T11:56:14Z</time>
      </trkpt>
      <trkpt lat="49.51994" lon="1.91555">
        <ele>147</ele>
        <time>2015-10-12T11:56:15Z</time>
      </trkpt>
      <trkpt lat="49.51983" lon="1.91535">
        <ele>141</ele>
        <time>2015-10-12T11:57:11Z</time>
      </trkpt>
      <trkpt lat="49.51973" lon="1.91505">
        <ele>141</ele>
        <time>2015-10-12T11:57:35Z</time>
      </trkpt>
      <trkpt lat="49.51978" lon="1.91472">
        <ele>147</ele>
        <time>2015-10-12T11:57:52Z</time>
      </trkpt>
      <trkpt lat="49.51978" lon="1.91472">
        <ele>147</ele>
        <time>2015-10-12T11:57:58Z</time>
      </trkpt>
      <trkpt lat="49.51978" lon="1.91472">
        <ele>147</ele>
        <time>2015-10-12T11:58:00Z</time>
      </trkpt>
      <trkpt lat="49.51975" lon="1.9143">
        <ele>146</ele>
        <time>2015-10-12T11:58:08Z</time>
      </trkpt>
      <trkpt lat="49.51977" lon="1.91403">
        <ele>145</ele>
        <time>2015-10-12T11:58:17Z</time>
      </trkpt>
      <trkpt lat="49.51977" lon="1.91395">
        <ele>146</ele>
        <time>2015-10-12T11:58:21Z</time>
      </trkpt>
      <trkpt lat="49.51979" lon="1.91387">
        <ele>151</ele>
        <time>2015-10-12T11:58:32Z</time>
      </trkpt>
      <trkpt lat="49.51982" lon="1.91365">
        <ele>153</ele>
        <time>2015-10-12T11:58:40Z</time>
      </trkpt>
      <trkpt lat="49.51983" lon="1.91341">
        <ele>147</ele>
        <time>2015-10-12T11:58:58Z</time>
      </trkpt>
      <trkpt lat="49.5198" lon="1.91319">
        <ele>149</ele>
        <time>2015-10-12T11:59:05Z</time>
      </trkpt>
      <trkpt lat="49.5198" lon="1.91323">
        <ele>149</ele>
        <time>2015-10-12T11:59:14Z</time>
      </trkpt>
      <trkpt lat="49.51979" lon="1.91299">
        <ele>155</ele>
        <time>2015-10-12T11:59:56Z</time>
      </trkpt>
      <trkpt lat="49.51979" lon="1.91266">
        <ele>155</ele>
        <time>2015-10-12T12:00:13Z</time>
      </trkpt>
      <trkpt lat="49.5198" lon="1.91236">
        <ele>155</ele>
        <time>2015-10-12T12:00:29Z</time>
      </trkpt>
      <trkpt lat="49.5198" lon="1.9122">
        <ele>154</ele>
        <time>2015-10-12T12:00:37Z</time>
      </trkpt>
      <trkpt lat="49.51981" lon="1.9121">
        <ele>153</ele>
        <time>2015-10-12T12:00:45Z</time>
      </trkpt>
      <trkpt lat="49.5198" lon="1.91185">
        <ele>153</ele>
        <time>2015-10-12T12:01:02Z</time>
      </trkpt>
      <trkpt lat="49.51977" lon="1.9117">
        <ele>151</ele>
        <time>2015-10-12T12:01:11Z</time>
      </trkpt>
      <trkpt lat="49.51974" lon="1.91158">
        <ele>150</ele>
        <time>2015-10-12T12:01:24Z</time>
      </trkpt>
      <trkpt lat="49.51987" lon="1.91126">
        <ele>155</ele>
        <time>2015-10-12T12:01:42Z</time>
      </trkpt>
      <trkpt lat="49.5198" lon="1.91105">
        <ele>147</ele>
        <time>2015-10-12T12:01:57Z</time>
      </trkpt>
      <trkpt lat="49.51979" lon="1.9108">
        <ele>146</ele>
        <time>2015-10-12T12:02:08Z</time>
      </trkpt>
      <trkpt lat="49.5198" lon="1.91064">
        <ele>148</ele>
        <time>2015-10-12T12:02:16Z</time>
      </trkpt>
      <trkpt lat="49.51981" lon="1.91048">
        <ele>146</ele>
        <time>2015-10-12T12:02:29Z</time>
      </trkpt>
      <trkpt lat="49.51982" lon="1.91027">
        <ele>148</ele>
        <time>2015-10-12T12:02:41Z</time>
      </trkpt>
      <trkpt lat="49.51984" lon="1.91002">
        <ele>152</ele>
        <time>2015-10-12T12:02:55Z</time>
      </trkpt>
      <trkpt lat="49.51986" lon="1.90979">
        <ele>151</ele>
        <time>2015-10-12T12:03:07Z</time>
      </trkpt>
      <trkpt lat="49.51987" lon="1.90964">
        <ele>150</ele>
        <time>2015-10-12T12:03:15Z</time>
      </trkpt>
      <trkpt lat="49.51985" lon="1.90952">
        <ele>147</ele>
        <time>2015-10-12T12:03:32Z</time>
      </trkpt>
      <trkpt lat="49.51986" lon="1.90921">
        <ele>148</ele>
        <time>2015-10-12T12:03:40Z</time>
      </trkpt>
      <trkpt lat="49.51988" lon="1.90905">
        <ele>148</ele>
        <time>2015-10-12T12:03:48Z</time>
      </trkpt>
      <trkpt lat="49.51989" lon="1.90882">
        <ele>153</ele>
        <time>2015-10-12T12:03:59Z</time>
      </trkpt>
      <trkpt lat="49.5199" lon="1.90861">
        <ele>153</ele>
        <time>2015-10-12T12:04:11Z</time>
      </trkpt>
      <trkpt lat="49.5199" lon="1.90834">
        <ele>154</ele>
        <time>2015-10-12T12:04:26Z</time>
      </trkpt>
      <trkpt lat="49.5199" lon="1.90834">
        <ele>154</ele>
        <time>2015-10-12T12:04:34Z</time>
      </trkpt>
      <trkpt lat="49.5199" lon="1.90834">
        <ele>154</ele>
        <time>2015-10-12T12:04:36Z</time>
      </trkpt>
      <trkpt lat="49.51997" lon="1.90804">
        <ele>156</ele>
        <time>2015-10-12T12:05:55Z</time>
      </trkpt>
      <trkpt lat="49.51999" lon="1.90778">
        <ele>153</ele>
        <time>2015-10-12T12:06:07Z</time>
      </trkpt>
      <trkpt lat="49.52004" lon="1.90757">
        <ele>151</ele>
        <time>2015-10-12T12:06:21Z</time>
      </trkpt>
      <trkpt lat="49.52008" lon="1.90737">
        <ele>153</ele>
        <time>2015-10-12T12:06:32Z</time>
      </trkpt>
      <trkpt lat="49.52016" lon="1.90707">
        <ele>154</ele>
        <time>2015-10-12T12:06:49Z</time>
      </trkpt>
      <trkpt lat="49.52029" lon="1.9068">
        <ele>160</ele>
        <time>2015-10-12T12:07:03Z</time>
      </trkpt>
      <trkpt lat="49.52031" lon="1.90658">
        <ele>154</ele>
        <time>2015-10-12T12:07:12Z</time>
      </trkpt>
      <trkpt lat="49.52034" lon="1.90645">
        <ele>155</ele>
        <time>2015-10-12T12:07:23Z</time>
      </trkpt>
      <trkpt lat="49.52034" lon="1.90645">
        <ele>155</ele>
        <time>2015-10-12T12:07:29Z</time>
      </trkpt>
      <trkpt lat="49.52034" lon="1.90645">
        <ele>155</ele>
        <time>2015-10-12T12:07:31Z</time>
      </trkpt>
      <trkpt lat="49.52041" lon="1.90616">
        <ele>154</ele>
        <time>2015-10-12T12:07:41Z</time>
      </trkpt>
      <trkpt lat="49.52054" lon="1.90575">
        <ele>158</ele>
        <time>2015-10-12T12:07:51Z</time>
      </trkpt>
      <trkpt lat="49.52054" lon="1.90575">
        <ele>158</ele>
        <time>2015-10-12T12:07:56Z</time>
      </trkpt>
      <trkpt lat="49.52054" lon="1.90575">
        <ele>158</ele>
        <time>2015-10-12T12:07:57Z</time>
      </trkpt>
      <trkpt lat="49.52066" lon="1.90562">
        <ele>160</ele>
        <time>2015-10-12T12:08:08Z</time>
      </trkpt>
      <trkpt lat="49.52077" lon="1.90534">
        <ele>151</ele>
        <time>2015-10-12T12:08:25Z</time>
      </trkpt>
      <trkpt lat="49.52078" lon="1.905">
        <ele>147</ele>
        <time>2015-10-12T12:08:46Z</time>
      </trkpt>
      <trkpt lat="49.52078" lon="1.905">
        <ele>147</ele>
        <time>2015-10-12T12:08:53Z</time>
      </trkpt>
      <trkpt lat="49.52087" lon="1.90484">
        <ele>147</ele>
        <time>2015-10-12T12:09:02Z</time>
      </trkpt>
      <trkpt lat="49.52096" lon="1.90449">
        <ele>150</ele>
        <time>2015-10-12T12:09:14Z</time>
      </trkpt>
      <trkpt lat="49.52107" lon="1.9044">
        <ele>145</ele>
        <time>2015-10-12T12:09:27Z</time>
      </trkpt>
      <trkpt lat="49.52107" lon="1.9044">
        <ele>145</ele>
        <time>2015-10-12T12:09:35Z</time>
      </trkpt>
      <trkpt lat="49.5211" lon="1.90438">
        <ele>143</ele>
        <time>2015-10-12T12:09:36Z</time>
      </trkpt>
      <trkpt lat="49.52123" lon="1.90423">
        <ele>142</ele>
        <time>2015-10-12T12:10:17Z</time>
      </trkpt>
      <trkpt lat="49.52136" lon="1.90408">
        <ele>138</ele>
        <time>2015-10-12T12:10:32Z</time>
      </trkpt>
      <trkpt lat="49.52146" lon="1.90388">
        <ele>142</ele>
        <time>2015-10-12T12:10:47Z</time>
      </trkpt>
      <trkpt lat="49.52155" lon="1.90373">
        <ele>136</ele>
        <time>2015-10-12T12:11:01Z</time>
      </trkpt>
      <trkpt lat="49.52168" lon="1.9036">
        <ele>137</ele>
        <time>2015-10-12T12:11:15Z</time>
      </trkpt>
      <trkpt lat="49.52171" lon="1.90355">
        <ele>140</ele>
        <time>2015-10-12T12:11:18Z</time>
      </trkpt>
      <trkpt lat="49.52172" lon="1.9035">
        <ele>135</ele>
        <time>2015-10-12T12:11:25Z</time>
      </trkpt>
      <trkpt lat="49.52183" lon="1.90335">
        <ele>141</ele>
        <time>2015-10-12T12:11:39Z</time>
      </trkpt>
      <trkpt lat="49.5219" lon="1.90317">
        <ele>144</ele>
        <time>2015-10-12T12:11:48Z</time>
      </trkpt>
      <trkpt lat="49.52195" lon="1.90297">
        <ele>138</ele>
        <time>2015-10-12T12:12:04Z</time>
      </trkpt>
      <trkpt lat="49.52198" lon="1.90281">
        <ele>132</ele>
        <time>2015-10-12T12:12:17Z</time>
      </trkpt>
      <trkpt lat="49.52201" lon="1.9026">
        <ele>134</ele>
        <time>2015-10-12T12:12:29Z</time>
      </trkpt>
      <trkpt lat="49.52208" lon="1.90235">
        <ele>136</ele>
        <time>2015-10-12T12:12:42Z</time>
      </trkpt>
      <trkpt lat="49.52209" lon="1.90228">
        <ele>136</ele>
        <time>2015-10-12T12:12:44Z</time>
      </trkpt>
      <trkpt lat="49.5222" lon="1.90204">
        <ele>143</ele>
        <time>2015-10-12T12:13:00Z</time>
      </trkpt>
      <trkpt lat="49.5222" lon="1.90204">
        <ele>143</ele>
        <time>2015-10-12T12:13:05Z</time>
      </trkpt>
      <trkpt lat="49.52221" lon="1.9018">
        <ele>137</ele>
        <time>2015-10-12T12:13:13Z</time>
      </trkpt>
      <trkpt lat="49.52224" lon="1.90171">
        <ele>137</ele>
        <time>2015-10-12T12:13:18Z</time>
      </trkpt>
      <trkpt lat="49.52233" lon="1.90158">
        <ele>138</ele>
        <time>2015-10-12T12:13:32Z</time>
      </trkpt>
      <trkpt lat="49.52245" lon="1.90134">
        <ele>140</ele>
        <time>2015-10-12T12:13:53Z</time>
      </trkpt>
      <trkpt lat="49.52253" lon="1.90116">
        <ele>140</ele>
        <time>2015-10-12T12:14:06Z</time>
      </trkpt>
      <trkpt lat="49.52266" lon="1.90101">
        <ele>137</ele>
        <time>2015-10-12T12:14:19Z</time>
      </trkpt>
      <trkpt lat="49.52269" lon="1.90095">
        <ele>140</ele>
        <time>2015-10-12T12:14:23Z</time>
      </trkpt>
      <trkpt lat="49.52268" lon="1.90087">
        <ele>140</ele>
        <time>2015-10-12T12:14:35Z</time>
      </trkpt>
      <trkpt lat="49.52272" lon="1.90054">
        <ele>144</ele>
        <time>2015-10-12T12:14:55Z</time>
      </trkpt>
      <trkpt lat="49.52272" lon="1.9003">
        <ele>145</ele>
        <time>2015-10-12T12:15:11Z</time>
      </trkpt>
      <trkpt lat="49.52277" lon="1.89999">
        <ele>147</ele>
        <time>2015-10-12T12:15:25Z</time>
      </trkpt>
      <trkpt lat="49.52276" lon="1.89992">
        <ele>147</ele>
        <time>2015-10-12T12:15:30Z</time>
      </trkpt>
      <trkpt lat="49.52271" lon="1.8999">
        <ele>146</ele>
        <time>2015-10-12T12:15:38Z</time>
      </trkpt>
      <trkpt lat="49.52268" lon="1.8995">
        <ele>142</ele>
        <time>2015-10-12T12:16:08Z</time>
      </trkpt>
      <trkpt lat="49.52269" lon="1.89922">
        <ele>147</ele>
        <time>2015-10-12T12:16:20Z</time>
      </trkpt>
      <trkpt lat="49.5227" lon="1.89914">
        <ele>146</ele>
        <time>2015-10-12T12:16:23Z</time>
      </trkpt>
      <trkpt lat="49.5227" lon="1.89897">
        <ele>147</ele>
        <time>2015-10-12T12:16:31Z</time>
      </trkpt>
      <trkpt lat="49.52271" lon="1.8988">
        <ele>149</ele>
        <time>2015-10-12T12:16:38Z</time>
      </trkpt>
      <trkpt lat="49.52273" lon="1.89864">
        <ele>150</ele>
        <time>2015-10-12T12:16:49Z</time>
      </trkpt>
      <trkpt lat="49.52272" lon="1.89831">
        <ele>149</ele>
        <time>2015-10-12T12:17:07Z</time>
      </trkpt>
      <trkpt lat="49.52271" lon="1.89824">
        <ele>149</ele>
        <time>2015-10-12T12:17:13Z</time>
      </trkpt>
      <trkpt lat="49.52282" lon="1.89817">
        <ele>140</ele>
        <time>2015-10-12T12:17:31Z</time>
      </trkpt>
      <trkpt lat="49.52274" lon="1.89772">
        <ele>149</ele>
        <time>2015-10-12T12:18:10Z</time>
      </trkpt>
      <trkpt lat="49.52274" lon="1.89772">
        <ele>149</ele>
        <time>2015-10-12T12:18:18Z</time>
      </trkpt>
      <trkpt lat="49.52274" lon="1.89772">
        <ele>149</ele>
        <time>2015-10-12T12:18:19Z</time>
      </trkpt>
      <trkpt lat="49.52264" lon="1.89751">
        <ele>146</ele>
        <time>2015-10-12T12:18:30Z</time>
      </trkpt>
      <trkpt lat="49.52264" lon="1.89714">
        <ele>151</ele>
        <time>2015-10-12T12:18:46Z</time>
      </trkpt>
      <trkpt lat="49.52264" lon="1.89714">
        <ele>151</ele>
        <time>2015-10-12T12:18:52Z</time>
      </trkpt>
      <trkpt lat="49.52264" lon="1.89714">
        <ele>151</ele>
        <time>2015-10-12T12:18:54Z</time>
      </trkpt>
      <trkpt lat="49.52258" lon="1.89686">
        <ele>149</ele>
        <time>2015-10-12T12:19:02Z</time>
      </trkpt>
      <trkpt lat="49.52259" lon="1.89667">
        <ele>149</ele>
        <time>2015-10-12T12:19:13Z</time>
      </trkpt>
      <trkpt lat="49.52261" lon="1.89657">
        <ele>151</ele>
        <time>2015-10-12T12:19:16Z</time>
      </trkpt>
      <trkpt lat="49.52265" lon="1.89639">
        <ele>148</ele>
        <time>2015-10-12T12:19:30Z</time>
      </trkpt>
      <trkpt lat="49.52267" lon="1.89626">
        <ele>145</ele>
        <time>2015-10-12T12:19:42Z</time>
      </trkpt>
      <trkpt lat="49.52266" lon="1.89601">
        <ele>144</ele>
        <time>2015-10-12T12:19:59Z</time>
      </trkpt>
      <trkpt lat="49.52267" lon="1.8958">
        <ele>144</ele>
        <time>2015-10-12T12:20:05Z</time>
      </trkpt>
      <trkpt lat="49.52268" lon="1.89569">
        <ele>142</ele>
        <time>2015-10-12T12:20:20Z</time>
      </trkpt>
      <trkpt lat="49.52275" lon="1.89528">
        <ele>150</ele>
        <time>2015-10-12T12:20:34Z</time>
      </trkpt>
      <trkpt lat="49.52273" lon="1.89515">
        <ele>150</ele>
        <time>2015-10-12T12:20:43Z</time>
      </trkpt>
      <trkpt lat="49.52273" lon="1.89515">
        <ele>150</ele>
        <time>2015-10-12T12:20:50Z</time>
      </trkpt>
      <trkpt lat="49.52273" lon="1.89515">
        <ele>150</ele>
        <time>2015-10-12T12:20:51Z</time>
      </trkpt>
      <trkpt lat="49.52283" lon="1.89461">
        <ele>149</ele>
        <time>2015-10-12T12:21:26Z</time>
      </trkpt>
      <trkpt lat="49.52286" lon="1.89455">
        <ele>146</ele>
        <time>2015-10-12T12:21:31Z</time>
      </trkpt>
      <trkpt lat="49.5229" lon="1.89443">
        <ele>144</ele>
        <time>2015-10-12T12:21:44Z</time>
      </trkpt>
      <trkpt lat="49.52295" lon="1.89417">
        <ele>144</ele>
        <time>2015-10-12T12:21:58Z</time>
      </trkpt>
      <trkpt lat="49.52306" lon="1.8937">
        <ele>141</ele>
        <time>2015-10-12T12:22:31Z</time>
      </trkpt>
      <trkpt lat="49.52312" lon="1.89344">
        <ele>143</ele>
        <time>2015-10-12T12:22:44Z</time>
      </trkpt>
      <trkpt lat="49.52309" lon="1.89332">
        <ele>141</ele>
        <time>2015-10-12T12:22:48Z</time>
      </trkpt>
      <trkpt lat="49.52313" lon="1.89316">
        <ele>141</ele>
        <time>2015-10-12T12:22:57Z</time>
      </trkpt>
      <trkpt lat="49.52319" lon="1.89294">
        <ele>143</ele>
        <time>2015-10-12T12:23:09Z</time>
      </trkpt>
      <trkpt lat="49.52323" lon="1.89288">
        <ele>143</ele>
        <time>2015-10-12T12:23:15Z</time>
      </trkpt>
      <trkpt lat="49.52325" lon="1.89277">
        <ele>142</ele>
        <time>2015-10-12T12:23:28Z</time>
      </trkpt>
      <trkpt lat="49.52327" lon="1.89264">
        <ele>146</ele>
        <time>2015-10-12T12:23:35Z</time>
      </trkpt>
      <trkpt lat="49.52335" lon="1.89244">
        <ele>147</ele>
        <time>2015-10-12T12:23:48Z</time>
      </trkpt>
      <trkpt lat="49.52335" lon="1.89244">
        <ele>147</ele>
        <time>2015-10-12T12:23:54Z</time>
      </trkpt>
      <trkpt lat="49.52335" lon="1.89244">
        <ele>147</ele>
        <time>2015-10-12T12:23:55Z</time>
      </trkpt>
      <trkpt lat="49.5234" lon="1.89218">
        <ele>143</ele>
        <time>2015-10-12T12:24:08Z</time>
      </trkpt>
      <trkpt lat="49.52349" lon="1.89207">
        <ele>145</ele>
        <time>2015-10-12T12:24:15Z</time>
      </trkpt>
      <trkpt lat="49.52348" lon="1.892">
        <ele>142</ele>
        <time>2015-10-12T12:24:25Z</time>
      </trkpt>
      <trkpt lat="49.52355" lon="1.89176">
        <ele>146</ele>
        <time>2015-10-12T12:24:32Z</time>
      </trkpt>
      <trkpt lat="49.52355" lon="1.89176">
        <ele>146</ele>
        <time>2015-10-12T12:24:37Z</time>
      </trkpt>
      <trkpt lat="49.52355" lon="1.89176">
        <ele>146</ele>
        <time>2015-10-12T12:24:38Z</time>
      </trkpt>
      <trkpt lat="49.52364" lon="1.89135">
        <ele>142</ele>
        <time>2015-10-12T12:25:13Z</time>
      </trkpt>
      <trkpt lat="49.52366" lon="1.8912">
        <ele>141</ele>
        <time>2015-10-12T12:25:21Z</time>
      </trkpt>
      <trkpt lat="49.5237" lon="1.89108">
        <ele>144</ele>
        <time>2015-10-12T12:25:34Z</time>
      </trkpt>
      <trkpt lat="49.52375" lon="1.89094">
        <ele>144</ele>
        <time>2015-10-12T12:25:46Z</time>
      </trkpt>
      <trkpt lat="49.52386" lon="1.89073">
        <ele>149</ele>
        <time>2015-10-12T12:25:57Z</time>
      </trkpt>
      <trkpt lat="49.52391" lon="1.89068">
        <ele>150</ele>
        <time>2015-10-12T12:26:02Z</time>
      </trkpt>
      <trkpt lat="49.52391" lon="1.8906">
        <ele>147</ele>
        <time>2015-10-12T12:26:14Z</time>
      </trkpt>
      <trkpt lat="49.52393" lon="1.89053">
        <ele>147</ele>
        <time>2015-10-12T12:26:17Z</time>
      </trkpt>
      <trkpt lat="49.52395" lon="1.89042">
        <ele>147</ele>
        <time>2015-10-12T12:26:23Z</time>
      </trkpt>
      <trkpt lat="49.52408" lon="1.89013">
        <ele>148</ele>
        <time>2015-10-12T12:26:47Z</time>
      </trkpt>
      <trkpt lat="49.52411" lon="1.88999">
        <ele>148</ele>
        <time>2015-10-12T12:26:54Z</time>
      </trkpt>
      <trkpt lat="49.52412" lon="1.88987">
        <ele>148</ele>
        <time>2015-10-12T12:27:07Z</time>
      </trkpt>
      <trkpt lat="49.52422" lon="1.88963">
        <ele>154</ele>
        <time>2015-10-12T12:27:17Z</time>
      </trkpt>
      <trkpt lat="49.52425" lon="1.88953">
        <ele>156</ele>
        <time>2015-10-12T12:27:22Z</time>
      </trkpt>
      <trkpt lat="49.5243" lon="1.88938">
        <ele>154</ele>
        <time>2015-10-12T12:27:32Z</time>
      </trkpt>
      <trkpt lat="49.52431" lon="1.88927">
        <ele>151</ele>
        <time>2015-10-12T12:27:40Z</time>
      </trkpt>
      <trkpt lat="49.52431" lon="1.88927">
        <ele>151</ele>
        <time>2015-10-12T12:27:47Z</time>
      </trkpt>
      <trkpt lat="49.52436" lon="1.88904">
        <ele>149</ele>
        <time>2015-10-12T12:27:58Z</time>
      </trkpt>
      <trkpt lat="49.52441" lon="1.8888">
        <ele>150</ele>
        <time>2015-10-12T12:28:08Z</time>
      </trkpt>
      <trkpt lat="49.52445" lon="1.88868">
        <ele>150</ele>
        <time>2015-10-12T12:28:18Z</time>
      </trkpt>
      <trkpt lat="49.5245" lon="1.88849">
        <ele>152</ele>
        <time>2015-10-12T12:28:25Z</time>
      </trkpt>
      <trkpt lat="49.5245" lon="1.88849">
        <ele>152</ele>
        <time>2015-10-12T12:28:31Z</time>
      </trkpt>
      <trkpt lat="49.52457" lon="1.88834">
        <ele>154</ele>
        <time>2015-10-12T12:28:34Z</time>
      </trkpt>
      <trkpt lat="49.52457" lon="1.88834">
        <ele>154</ele>
        <time>2015-10-12T12:28:39Z</time>
      </trkpt>
      <trkpt lat="49.52458" lon="1.88817">
        <ele>152</ele>
        <time>2015-10-12T12:28:47Z</time>
      </trkpt>
      <trkpt lat="49.52466" lon="1.88797">
        <ele>157</ele>
        <time>2015-10-12T12:28:57Z</time>
      </trkpt>
      <trkpt lat="49.52473" lon="1.88774">
        <ele>160</ele>
        <time>2015-10-12T12:29:08Z</time>
      </trkpt>
      <trkpt lat="49.52476" lon="1.8875">
        <ele>155</ele>
        <time>2015-10-12T12:29:22Z</time>
      </trkpt>
      <trkpt lat="49.52476" lon="1.88736">
        <ele>150</ele>
        <time>2015-10-12T12:29:37Z</time>
      </trkpt>
      <trkpt lat="49.52477" lon="1.88713">
        <ele>142</ele>
        <time>2015-10-12T12:29:54Z</time>
      </trkpt>
      <trkpt lat="49.52486" lon="1.88692">
        <ele>141</ele>
        <time>2015-10-12T12:30:08Z</time>
      </trkpt>
      <trkpt lat="49.52486" lon="1.88692">
        <ele>141</ele>
        <time>2015-10-12T12:30:16Z</time>
      </trkpt>
      <trkpt lat="49.52486" lon="1.88692">
        <ele>141</ele>
        <time>2015-10-12T12:30:18Z</time>
      </trkpt>
      <trkpt lat="49.52495" lon="1.88675">
        <ele>140</ele>
        <time>2015-10-12T12:30:25Z</time>
      </trkpt>
      <trkpt lat="49.52501" lon="1.8866">
        <ele>144</ele>
        <time>2015-10-12T12:30:32Z</time>
      </trkpt>
      <trkpt lat="49.52503" lon="1.88649">
        <ele>143</ele>
        <time>2015-10-12T12:30:40Z</time>
      </trkpt>
      <trkpt lat="49.52509" lon="1.88636">
        <ele>146</ele>
        <time>2015-10-12T12:30:46Z</time>
      </trkpt>
      <trkpt lat="49.52516" lon="1.88621">
        <ele>147</ele>
        <time>2015-10-12T12:30:55Z</time>
      </trkpt>
      <trkpt lat="49.52525" lon="1.88602">
        <ele>151</ele>
        <time>2015-10-12T12:31:06Z</time>
      </trkpt>
      <trkpt lat="49.52526" lon="1.88599">
        <ele>149</ele>
        <time>2015-10-12T12:31:11Z</time>
      </trkpt>
      <trkpt lat="49.52525" lon="1.88602">
        <ele>151</ele>
        <time>2015-10-12T12:31:19Z</time>
      </trkpt>
      <trkpt lat="49.52534" lon="1.88588">
        <ele>147</ele>
        <time>2015-10-12T12:31:28Z</time>
      </trkpt>
      <trkpt lat="49.52541" lon="1.88561">
        <ele>140</ele>
        <time>2015-10-12T12:31:46Z</time>
      </trkpt>
      <trkpt lat="49.52553" lon="1.88544">
        <ele>139</ele>
        <time>2015-10-12T12:32:03Z</time>
      </trkpt>
      <trkpt lat="49.52564" lon="1.88524">
        <ele>148</ele>
        <time>2015-10-12T12:32:17Z</time>
      </trkpt>
      <trkpt lat="49.52578" lon="1.88506">
        <ele>150</ele>
        <time>2015-10-12T12:32:31Z</time>
      </trkpt>
      <trkpt lat="49.52597" lon="1.88491">
        <ele>145</ele>
        <time>2015-10-12T12:32:48Z</time>
      </trkpt>
      <trkpt lat="49.52604" lon="1.88472">
        <ele>150</ele>
        <time>2015-10-12T12:33:04Z</time>
      </trkpt>
      <trkpt lat="49.52604" lon="1.88472">
        <ele>150</ele>
        <time>2015-10-12T12:33:11Z</time>
      </trkpt>
      <trkpt lat="49.52618" lon="1.88458">
        <ele>147</ele>
        <time>2015-10-12T12:33:22Z</time>
      </trkpt>
      <trkpt lat="49.52622" lon="1.88437">
        <ele>146</ele>
        <time>2015-10-12T12:33:35Z</time>
      </trkpt>
      <trkpt lat="49.52629" lon="1.88415">
        <ele>144</ele>
        <time>2015-10-12T12:33:50Z</time>
      </trkpt>
      <trkpt lat="49.52639" lon="1.88396">
        <ele>150</ele>
        <time>2015-10-12T12:34:07Z</time>
      </trkpt>
      <trkpt lat="49.52641" lon="1.8837">
        <ele>149</ele>
        <time>2015-10-12T12:34:23Z</time>
      </trkpt>
      <trkpt lat="49.52643" lon="1.88343">
        <ele>150</ele>
        <time>2015-10-12T12:34:37Z</time>
      </trkpt>
      <trkpt lat="49.52651" lon="1.8832">
        <ele>153</ele>
        <time>2015-10-12T12:34:49Z</time>
      </trkpt>
      <trkpt lat="49.52656" lon="1.88298">
        <ele>152</ele>
        <time>2015-10-12T12:35:04Z</time>
      </trkpt>
      <trkpt lat="49.52663" lon="1.88263">
        <ele>139</ele>
        <time>2015-10-12T12:35:27Z</time>
      </trkpt>
      <trkpt lat="49.52664" lon="1.88239">
        <ele>135</ele>
        <time>2015-10-12T12:35:41Z</time>
      </trkpt>
      <trkpt lat="49.52677" lon="1.8823">
        <ele>141</ele>
        <time>2015-10-12T12:35:51Z</time>
      </trkpt>
      <trkpt lat="49.52687" lon="1.88224">
        <ele>144</ele>
        <time>2015-10-12T12:35:57Z</time>
      </trkpt>
      <trkpt lat="49.52698" lon="1.88208">
        <ele>146</ele>
        <time>2015-10-12T12:36:08Z</time>
      </trkpt>
      <trkpt lat="49.52714" lon="1.88189">
        <ele>146</ele>
        <time>2015-10-12T12:36:27Z</time>
      </trkpt>
      <trkpt lat="49.52733" lon="1.88174">
        <ele>144</ele>
        <time>2015-10-12T12:36:45Z</time>
      </trkpt>
      <trkpt lat="49.52756" lon="1.88167">
        <ele>149</ele>
        <time>2015-10-12T12:36:58Z</time>
      </trkpt>
      <trkpt lat="49.52763" lon="1.88156">
        <ele>148</ele>
        <time>2015-10-12T12:37:09Z</time>
      </trkpt>
      <trkpt lat="49.52771" lon="1.88147">
        <ele>145</ele>
        <time>2015-10-12T12:37:21Z</time>
      </trkpt>
      <trkpt lat="49.52783" lon="1.88144">
        <ele>145</ele>
        <time>2015-10-12T12:37:29Z</time>
      </trkpt>
      <trkpt lat="49.52791" lon="1.88136">
        <ele>145</ele>
        <time>2015-10-12T12:37:35Z</time>
      </trkpt>
      <trkpt lat="49.52794" lon="1.8813">
        <ele>150</ele>
        <time>2015-10-12T12:37:41Z</time>
      </trkpt>
      <trkpt lat="49.52805" lon="1.88116">
        <ele>151</ele>
        <time>2015-10-12T12:37:57Z</time>
      </trkpt>
      <trkpt lat="49.52819" lon="1.88105">
        <ele>148</ele>
        <time>2015-10-12T12:38:11Z</time>
      </trkpt>
      <trkpt lat="49.52828" lon="1.88093">
        <ele>150</ele>
        <time>2015-10-12T12:38:20Z</time>
      </trkpt>
      <trkpt lat="49.52839" lon="1.88085">
        <ele>148</ele>
        <time>2015-10-12T12:38:34Z</time>
      </trkpt>
      <trkpt lat="49.52857" lon="1.88079">
        <ele>152</ele>
        <time>2015-10-12T12:38:45Z</time>
      </trkpt>
      <trkpt lat="49.52859" lon="1.88072">
        <ele>154</ele>
        <time>2015-10-12T12:38:49Z</time>
      </trkpt>
      <trkpt lat="49.52867" lon="1.88065">
        <ele>156</ele>
        <time>2015-10-12T12:38:59Z</time>
      </trkpt>
      <trkpt lat="49.52882" lon="1.88045">
        <ele>158</ele>
        <time>2015-10-12T12:39:17Z</time>
      </trkpt>
      <trkpt lat="49.52901" lon="1.88029">
        <ele>151</ele>
        <time>2015-10-12T12:39:37Z</time>
      </trkpt>
      <trkpt lat="49.52917" lon="1.88024">
        <ele>154</ele>
        <time>2015-10-12T12:39:51Z</time>
      </trkpt>
      <trkpt lat="49.52921" lon="1.88027">
        <ele>154</ele>
        <time>2015-10-12T12:39:57Z</time>
      </trkpt>
      <trkpt lat="49.52924" lon="1.88029">
        <ele>151</ele>
        <time>2015-10-12T12:40:05Z</time>
      </trkpt>
      <trkpt lat="49.52929" lon="1.88058">
        <ele>136</ele>
        <time>2015-10-12T12:47:08Z</time>
      </trkpt>
      <trkpt lat="49.52931" lon="1.88062">
        <ele>135</ele>
        <time>2015-10-12T12:47:12Z</time>
      </trkpt>
      <trkpt lat="49.52929" lon="1.88058">
        <ele>136</ele>
        <time>2015-10-12T12:47:20Z</time>
      </trkpt>
      <trkpt lat="49.52915" lon="1.88021">
        <ele>145</ele>
        <time>2015-10-12T12:50:03Z</time>
      </trkpt>
      <trkpt lat="49.52923" lon="1.88006">
        <ele>146</ele>
        <time>2015-10-12T12:50:17Z</time>
      </trkpt>
      <trkpt lat="49.52931" lon="1.87991">
        <ele>149</ele>
        <time>2015-10-12T12:50:25Z</time>
      </trkpt>
      <trkpt lat="49.52945" lon="1.87975">
        <ele>149</ele>
        <time>2015-10-12T12:50:40Z</time>
      </trkpt>
      <trkpt lat="49.52956" lon="1.87963">
        <ele>148</ele>
        <time>2015-10-12T12:50:52Z</time>
      </trkpt>
      <trkpt lat="49.5297" lon="1.87947">
        <ele>151</ele>
        <time>2015-10-12T12:51:05Z</time>
      </trkpt>
      <trkpt lat="49.52977" lon="1.87923">
        <ele>153</ele>
        <time>2015-10-12T12:51:20Z</time>
      </trkpt>
      <trkpt lat="49.52993" lon="1.87911">
        <ele>153</ele>
        <time>2015-10-12T12:51:35Z</time>
      </trkpt>
      <trkpt lat="49.52995" lon="1.87883">
        <ele>151</ele>
        <time>2015-10-12T12:51:50Z</time>
      </trkpt>
      <trkpt lat="49.53004" lon="1.87863">
        <ele>154</ele>
        <time>2015-10-12T12:52:04Z</time>
      </trkpt>
      <trkpt lat="49.53007" lon="1.87855">
        <ele>153</ele>
        <time>2015-10-12T12:52:11Z</time>
      </trkpt>
      <trkpt lat="49.53006" lon="1.87855">
        <ele>154</ele>
        <time>2015-10-12T12:52:21Z</time>
      </trkpt>
      <trkpt lat="49.53021" lon="1.87836">
        <ele>153</ele>
        <time>2015-10-12T12:52:41Z</time>
      </trkpt>
      <trkpt lat="49.53028" lon="1.87822">
        <ele>148</ele>
        <time>2015-10-12T12:52:51Z</time>
      </trkpt>
      <trkpt lat="49.53032" lon="1.87796">
        <ele>151</ele>
        <time>2015-10-12T12:53:07Z</time>
      </trkpt>
      <trkpt lat="49.53041" lon="1.87785">
        <ele>152</ele>
        <time>2015-10-12T12:53:17Z</time>
      </trkpt>
      <trkpt lat="49.53054" lon="1.87759">
        <ele>155</ele>
        <time>2015-10-12T12:53:35Z</time>
      </trkpt>
      <trkpt lat="49.53065" lon="1.87737">
        <ele>147</ele>
        <time>2015-10-12T12:53:50Z</time>
      </trkpt>
      <trkpt lat="49.53076" lon="1.87717">
        <ele>145</ele>
        <time>2015-10-12T12:54:03Z</time>
      </trkpt>
      <trkpt lat="49.53084" lon="1.87696">
        <ele>140</ele>
        <time>2015-10-12T12:54:21Z</time>
      </trkpt>
      <trkpt lat="49.53096" lon="1.87674">
        <ele>147</ele>
        <time>2015-10-12T12:54:38Z</time>
      </trkpt>
      <trkpt lat="49.53098" lon="1.87647">
        <ele>149</ele>
        <time>2015-10-12T12:54:51Z</time>
      </trkpt>
      <trkpt lat="49.53106" lon="1.87626">
        <ele>150</ele>
        <time>2015-10-12T12:55:05Z</time>
      </trkpt>
      <trkpt lat="49.53121" lon="1.87606">
        <ele>151</ele>
        <time>2015-10-12T12:55:17Z</time>
      </trkpt>
      <trkpt lat="49.53123" lon="1.87578">
        <ele>146</ele>
        <time>2015-10-12T12:55:33Z</time>
      </trkpt>
      <trkpt lat="49.53139" lon="1.87547">
        <ele>154</ele>
        <time>2015-10-12T12:55:53Z</time>
      </trkpt>
      <trkpt lat="49.53153" lon="1.87527">
        <ele>165</ele>
        <time>2015-10-12T12:56:07Z</time>
      </trkpt>
      <trkpt lat="49.53163" lon="1.87511">
        <ele>161</ele>
        <time>2015-10-12T12:56:19Z</time>
      </trkpt>
      <trkpt lat="49.53165" lon="1.87504">
        <ele>159</ele>
        <time>2015-10-12T12:56:22Z</time>
      </trkpt>
      <trkpt lat="49.53168" lon="1.87494">
        <ele>157</ele>
        <time>2015-10-12T12:56:30Z</time>
      </trkpt>
      <trkpt lat="49.53176" lon="1.87484">
        <ele>160</ele>
        <time>2015-10-12T12:56:37Z</time>
      </trkpt>
      <trkpt lat="49.53175" lon="1.87469">
        <ele>156</ele>
        <time>2015-10-12T12:56:50Z</time>
      </trkpt>
      <trkpt lat="49.53183" lon="1.87446">
        <ele>161</ele>
        <time>2015-10-12T12:57:04Z</time>
      </trkpt>
      <trkpt lat="49.53192" lon="1.87423">
        <ele>159</ele>
        <time>2015-10-12T12:57:21Z</time>
      </trkpt>
      <trkpt lat="49.53207" lon="1.87394">
        <ele>160</ele>
        <time>2015-10-12T12:57:42Z</time>
      </trkpt>
      <trkpt lat="49.53219" lon="1.87363">
        <ele>158</ele>
        <time>2015-10-12T12:58:03Z</time>
      </trkpt>
      <trkpt lat="49.53229" lon="1.87348">
        <ele>161</ele>
        <time>2015-10-12T12:58:15Z</time>
      </trkpt>
      <trkpt lat="49.5324" lon="1.87328">
        <ele>149</ele>
        <time>2015-10-12T12:58:28Z</time>
      </trkpt>
      <trkpt lat="49.53254" lon="1.87312">
        <ele>154</ele>
        <time>2015-10-12T12:58:42Z</time>
      </trkpt>
      <trkpt lat="49.53265" lon="1.87295">
        <ele>159</ele>
        <time>2015-10-12T12:58:59Z</time>
      </trkpt>
      <trkpt lat="49.53282" lon="1.87264">
        <ele>162</ele>
        <time>2015-10-12T12:59:21Z</time>
      </trkpt>
      <trkpt lat="49.53287" lon="1.87239">
        <ele>161</ele>
        <time>2015-10-12T12:59:39Z</time>
      </trkpt>
      <trkpt lat="49.53297" lon="1.87209">
        <ele>164</ele>
        <time>2015-10-12T13:00:00Z</time>
      </trkpt>
      <trkpt lat="49.53307" lon="1.87183">
        <ele>159</ele>
        <time>2015-10-12T13:00:18Z</time>
      </trkpt>
      <trkpt lat="49.53307" lon="1.87183">
        <ele>159</ele>
        <time>2015-10-12T13:00:25Z</time>
      </trkpt>
      <trkpt lat="49.5331" lon="1.87165">
        <ele>160</ele>
        <time>2015-10-12T13:00:33Z</time>
      </trkpt>
      <trkpt lat="49.53317" lon="1.87155">
        <ele>167</ele>
        <time>2015-10-12T13:00:43Z</time>
      </trkpt>
      <trkpt lat="49.53324" lon="1.87129">
        <ele>170</ele>
        <time>2015-10-12T13:01:00Z</time>
      </trkpt>
      <trkpt lat="49.53324" lon="1.87129">
        <ele>170</ele>
        <time>2015-10-12T13:01:08Z</time>
      </trkpt>
      <trkpt lat="49.53324" lon="1.87129">
        <ele>170</ele>
        <time>2015-10-12T13:01:09Z</time>
      </trkpt>
      <trkpt lat="49.5334" lon="1.87113">
        <ele>177</ele>
        <time>2015-10-12T13:01:17Z</time>
      </trkpt>
      <trkpt lat="49.53351" lon="1.87102">
        <ele>172</ele>
        <time>2015-10-12T13:01:23Z</time>
      </trkpt>
      <trkpt lat="49.53357" lon="1.8709">
        <ele>172</ele>
        <time>2015-10-12T13:01:34Z</time>
      </trkpt>
      <trkpt lat="49.53368" lon="1.87087">
        <ele>177</ele>
        <time>2015-10-12T13:01:43Z</time>
      </trkpt>
      <trkpt lat="49.53371" lon="1.87074">
        <ele>170</ele>
        <time>2015-10-12T13:01:56Z</time>
      </trkpt>
      <trkpt lat="49.53387" lon="1.87053">
        <ele>175</ele>
        <time>2015-10-12T13:02:09Z</time>
      </trkpt>
      <trkpt lat="49.53397" lon="1.87034">
        <ele>179</ele>
        <time>2015-10-12T13:02:15Z</time>
      </trkpt>
      <trkpt lat="49.53403" lon="1.87026">
        <ele>178</ele>
        <time>2015-10-12T13:02:27Z</time>
      </trkpt>
      <trkpt lat="49.53405" lon="1.87025">
        <ele>178</ele>
        <time>2015-10-12T13:02:28Z</time>
      </trkpt>
      <trkpt lat="49.53403" lon="1.87026">
        <ele>178</ele>
        <time>2015-10-12T13:02:37Z</time>
      </trkpt>
      <trkpt lat="49.53416" lon="1.87031">
        <ele>160</ele>
        <time>2015-10-12T13:02:49Z</time>
      </trkpt>
      <trkpt lat="49.53427" lon="1.87039">
        <ele>161</ele>
        <time>2015-10-12T13:02:54Z</time>
      </trkpt>
      <trkpt lat="49.53433" lon="1.8705">
        <ele>157</ele>
        <time>2015-10-12T13:03:07Z</time>
      </trkpt>
      <trkpt lat="49.53433" lon="1.8705">
        <ele>157</ele>
        <time>2015-10-12T13:03:15Z</time>
      </trkpt>
      <trkpt lat="49.53433" lon="1.8705">
        <ele>157</ele>
        <time>2015-10-12T13:03:16Z</time>
      </trkpt>
      <trkpt lat="49.53446" lon="1.87064">
        <ele>158</ele>
        <time>2015-10-12T13:03:26Z</time>
      </trkpt>
      <trkpt lat="49.53466" lon="1.87072">
        <ele>154</ele>
        <time>2015-10-12T13:03:39Z</time>
      </trkpt>
      <trkpt lat="49.5347" lon="1.87073">
        <ele>155</ele>
        <time>2015-10-12T13:03:43Z</time>
      </trkpt>
      <trkpt lat="49.53478" lon="1.8707">
        <ele>162</ele>
        <time>2015-10-12T13:03:52Z</time>
      </trkpt>
      <trkpt lat="49.53487" lon="1.87059">
        <ele>156</ele>
        <time>2015-10-12T13:04:06Z</time>
      </trkpt>
      <trkpt lat="49.53497" lon="1.87044">
        <ele>153</ele>
        <time>2015-10-12T13:04:16Z</time>
      </trkpt>
      <trkpt lat="49.53512" lon="1.87018">
        <ele>154</ele>
        <time>2015-10-12T13:04:34Z</time>
      </trkpt>
      <trkpt lat="49.53525" lon="1.86999">
        <ele>162</ele>
        <time>2015-10-12T13:04:47Z</time>
      </trkpt>
      <trkpt lat="49.53527" lon="1.86971">
        <ele>159</ele>
        <time>2015-10-12T13:05:02Z</time>
      </trkpt>
      <trkpt lat="49.53533" lon="1.8696">
        <ele>157</ele>
        <time>2015-10-12T13:05:14Z</time>
      </trkpt>
      <trkpt lat="49.53537" lon="1.86924">
        <ele>159</ele>
        <time>2015-10-12T13:05:31Z</time>
      </trkpt>
      <trkpt lat="49.53546" lon="1.86912">
        <ele>157</ele>
        <time>2015-10-12T13:05:43Z</time>
      </trkpt>
      <trkpt lat="49.53555" lon="1.86904">
        <ele>163</ele>
        <time>2015-10-12T13:05:55Z</time>
      </trkpt>
      <trkpt lat="49.53565" lon="1.8688">
        <ele>156</ele>
        <time>2015-10-12T13:06:09Z</time>
      </trkpt>
      <trkpt lat="49.53572" lon="1.86887">
        <ele>153</ele>
        <time>2015-10-12T13:06:15Z</time>
      </trkpt>
      <trkpt lat="49.53585" lon="1.86861">
        <ele>152</ele>
        <time>2015-10-12T13:06:31Z</time>
      </trkpt>
      <trkpt lat="49.53604" lon="1.86845">
        <ele>149</ele>
        <time>2015-10-12T13:06:47Z</time>
      </trkpt>
      <trkpt lat="49.53604" lon="1.86845">
        <ele>149</ele>
        <time>2015-10-12T13:06:52Z</time>
      </trkpt>
      <trkpt lat="49.53604" lon="1.86845">
        <ele>149</ele>
        <time>2015-10-12T13:06:53Z</time>
      </trkpt>
      <trkpt lat="49.53613" lon="1.86828">
        <ele>152</ele>
        <time>2015-10-12T13:07:03Z</time>
      </trkpt>
      <trkpt lat="49.53632" lon="1.86806">
        <ele>153</ele>
        <time>2015-10-12T13:07:24Z</time>
      </trkpt>
      <trkpt lat="49.53651" lon="1.86776">
        <ele>156</ele>
        <time>2015-10-12T13:07:45Z</time>
      </trkpt>
      <trkpt lat="49.53665" lon="1.86765">
        <ele>153</ele>
        <time>2015-10-12T13:08:00Z</time>
      </trkpt>
      <trkpt lat="49.53675" lon="1.8676">
        <ele>153</ele>
        <time>2015-10-12T13:08:11Z</time>
      </trkpt>
      <trkpt lat="49.53675" lon="1.8676">
        <ele>153</ele>
        <time>2015-10-12T13:08:18Z</time>
      </trkpt>
      <trkpt lat="49.53675" lon="1.8676">
        <ele>153</ele>
        <time>2015-10-12T13:08:19Z</time>
      </trkpt>
      <trkpt lat="49.53682" lon="1.86738">
        <ele>158</ele>
        <time>2015-10-12T13:08:37Z</time>
      </trkpt>
      <trkpt lat="49.53691" lon="1.8675">
        <ele>158</ele>
        <time>2015-10-12T13:08:43Z</time>
      </trkpt>
      <trkpt lat="49.53695" lon="1.86747">
        <ele>158</ele>
        <time>2015-10-12T13:08:51Z</time>
      </trkpt>
      <trkpt lat="49.53712" lon="1.86757">
        <ele>154</ele>
        <time>2015-10-12T13:09:40Z</time>
      </trkpt>
      <trkpt lat="49.53729" lon="1.86716">
        <ele>152</ele>
        <time>2015-10-12T13:10:29Z</time>
      </trkpt>
      <trkpt lat="49.53743" lon="1.86704">
        <ele>150</ele>
        <time>2015-10-12T13:10:40Z</time>
      </trkpt>
      <trkpt lat="49.53761" lon="1.86693">
        <ele>154</ele>
        <time>2015-10-12T13:10:56Z</time>
      </trkpt>
      <trkpt lat="49.53774" lon="1.86669">
        <ele>158</ele>
        <time>2015-10-12T13:11:11Z</time>
      </trkpt>
      <trkpt lat="49.53788" lon="1.86638">
        <ele>159</ele>
        <time>2015-10-12T13:11:30Z</time>
      </trkpt>
      <trkpt lat="49.538" lon="1.86612">
        <ele>157</ele>
        <time>2015-10-12T13:11:50Z</time>
      </trkpt>
      <trkpt lat="49.53804" lon="1.86595">
        <ele>157</ele>
        <time>2015-10-12T13:12:01Z</time>
      </trkpt>
      <trkpt lat="49.53803" lon="1.86578">
        <ele>158</ele>
        <time>2015-10-12T13:12:15Z</time>
      </trkpt>
      <trkpt lat="49.53827" lon="1.86548">
        <ele>171</ele>
        <time>2015-10-12T13:12:35Z</time>
      </trkpt>
      <trkpt lat="49.53826" lon="1.86541">
        <ele>165</ele>
        <time>2015-10-12T13:12:39Z</time>
      </trkpt>
      <trkpt lat="49.53839" lon="1.86524">
        <ele>161</ele>
        <time>2015-10-12T13:12:54Z</time>
      </trkpt>
      <trkpt lat="49.53853" lon="1.865">
        <ele>158</ele>
        <time>2015-10-12T13:13:11Z</time>
      </trkpt>
      <trkpt lat="49.5386" lon="1.86482">
        <ele>153</ele>
        <time>2015-10-12T13:13:24Z</time>
      </trkpt>
      <trkpt lat="49.53874" lon="1.8646">
        <ele>157</ele>
        <time>2015-10-12T13:13:33Z</time>
      </trkpt>
      <trkpt lat="49.53876" lon="1.86451">
        <ele>156</ele>
        <time>2015-10-12T13:13:36Z</time>
      </trkpt>
      <trkpt lat="49.53876" lon="1.86448">
        <ele>156</ele>
        <time>2015-10-12T13:13:43Z</time>
      </trkpt>
      <trkpt lat="49.53887" lon="1.86425">
        <ele>159</ele>
        <time>2015-10-12T13:13:59Z</time>
      </trkpt>
      <trkpt lat="49.53892" lon="1.86404">
        <ele>157</ele>
        <time>2015-10-12T13:14:11Z</time>
      </trkpt>
      <trkpt lat="49.53892" lon="1.86404">
        <ele>157</ele>
        <time>2015-10-12T13:14:18Z</time>
      </trkpt>
      <trkpt lat="49.53892" lon="1.86404">
        <ele>157</ele>
        <time>2015-10-12T13:14:19Z</time>
      </trkpt>
      <trkpt lat="49.53902" lon="1.86394">
        <ele>159</ele>
        <time>2015-10-12T13:14:26Z</time>
      </trkpt>
      <trkpt lat="49.53902" lon="1.86394">
        <ele>159</ele>
        <time>2015-10-12T13:14:31Z</time>
      </trkpt>
      <trkpt lat="49.53902" lon="1.86394">
        <ele>159</ele>
        <time>2015-10-12T13:14:32Z</time>
      </trkpt>
      <trkpt lat="49.53913" lon="1.86378">
        <ele>158</ele>
        <time>2015-10-12T13:14:42Z</time>
      </trkpt>
      <trkpt lat="49.53915" lon="1.86368">
        <ele>158</ele>
        <time>2015-10-12T13:14:47Z</time>
      </trkpt>
      <trkpt lat="49.53916" lon="1.86366">
        <ele>158</ele>
        <time>2015-10-12T13:14:56Z</time>
      </trkpt>
      <trkpt lat="49.53925" lon="1.86344">
        <ele>156</ele>
        <time>2015-10-12T13:15:31Z</time>
      </trkpt>
      <trkpt lat="49.53933" lon="1.86329">
        <ele>158</ele>
        <time>2015-10-12T13:15:42Z</time>
      </trkpt>
      <trkpt lat="49.53941" lon="1.86314">
        <ele>158</ele>
        <time>2015-10-12T13:15:52Z</time>
      </trkpt>
      <trkpt lat="49.5394" lon="1.86307">
        <ele>153</ele>
        <time>2015-10-12T13:15:58Z</time>
      </trkpt>
      <trkpt lat="49.53945" lon="1.86304">
        <ele>159</ele>
        <time>2015-10-12T13:16:11Z</time>
      </trkpt>
      <trkpt lat="49.53945" lon="1.86304">
        <ele>111</ele>
        <time>2015-10-12T13:16:11Z</time>
      </trkpt>
    </trkseg>
  </trk>
</gpx>